sensor_id;sensor_type;location;lat;lon;timestamp;temperature;humidity
38263;DHT22;24054;50.128;19.730;2023-02-04T00:00:04;21.60;46.50
38263;DHT22;24054;50.128;19.730;2023-02-04T00:02:33;21.60;46.40
38263;DHT22;24054;50.128;19.730;2023-02-04T00:05:00;21.60;46.50
38263;DHT22;24054;50.128;19.730;2023-02-04T00:07:27;21.60;46.50
38263;DHT22;24054;50.128;19.730;2023-02-04T00:09:54;21.50;46.40
38263;DHT22;24054;50.128;19.730;2023-02-04T00:12:21;21.50;46.40
38263;DHT22;24054;50.128;19.730;2023-02-04T00:14:48;21.50;46.40
38263;DHT22;24054;50.128;19.730;2023-02-04T00:17:17;21.50;46.40
38263;DHT22;24054;50.128;19.730;2023-02-04T00:19:43;21.40;46.40
38263;DHT22;24054;50.128;19.730;2023-02-04T00:22:10;21.40;46.30
38263;DHT22;24054;50.128;19.730;2023-02-04T00:24:38;21.40;46.40
38263;DHT22;24054;50.128;19.730;2023-02-04T00:27:06;21.40;46.40
38263;DHT22;24054;50.128;19.730;2023-02-04T00:29:33;21.40;46.30
38263;DHT22;24054;50.128;19.730;2023-02-04T00:32:00;21.30;46.30
38263;DHT22;24054;50.128;19.730;2023-02-04T00:34:29;21.30;46.30
38263;DHT22;24054;50.128;19.730;2023-02-04T00:36:58;21.30;46.30
38263;DHT22;24054;50.128;19.730;2023-02-04T00:39:25;21.30;46.30
38263;DHT22;24054;50.128;19.730;2023-02-04T00:41:52;21.30;46.30
38263;DHT22;24054;50.128;19.730;2023-02-04T00:44:19;21.30;46.30
38263;DHT22;24054;50.128;19.730;2023-02-04T00:46:46;21.30;46.30
38263;DHT22;24054;50.128;19.730;2023-02-04T00:49:13;21.30;46.40
38263;DHT22;24054;50.128;19.730;2023-02-04T00:51:42;21.30;46.30
38263;DHT22;24054;50.128;19.730;2023-02-04T00:54:11;21.20;46.30
38263;DHT22;24054;50.128;19.730;2023-02-04T00:56:40;21.20;46.30
38263;DHT22;24054;50.128;19.730;2023-02-04T00:59:07;21.20;46.30
38263;DHT22;24054;50.128;19.730;2023-02-04T01:01:34;21.20;46.20
38263;DHT22;24054;50.128;19.730;2023-02-04T01:04:01;21.20;46.30
38263;DHT22;24054;50.128;19.730;2023-02-04T01:06:28;21.20;46.20
38263;DHT22;24054;50.128;19.730;2023-02-04T01:08:57;21.20;46.20
38263;DHT22;24054;50.128;19.730;2023-02-04T01:11:24;21.20;46.20
38263;DHT22;24054;50.128;19.730;2023-02-04T01:13:51;21.10;46.20
38263;DHT22;24054;50.128;19.730;2023-02-04T01:16:18;21.10;46.20
38263;DHT22;24054;50.128;19.730;2023-02-04T01:18:45;21.10;46.20
38263;DHT22;24054;50.128;19.730;2023-02-04T01:21:12;21.10;46.20
38263;DHT22;24054;50.128;19.730;2023-02-04T01:23:39;21.10;46.20
38263;DHT22;24054;50.128;19.730;2023-02-04T01:26:07;21.10;46.20
38263;DHT22;24054;50.128;19.730;2023-02-04T01:28:34;21.10;46.10
38263;DHT22;24054;50.128;19.730;2023-02-04T01:31:01;21.10;46.10
38263;DHT22;24054;50.128;19.730;2023-02-04T01:33:28;21.10;46.10
38263;DHT22;24054;50.128;19.730;2023-02-04T01:35:55;21.00;46.10
38263;DHT22;24054;50.128;19.730;2023-02-04T01:38:22;21.10;46.10
38263;DHT22;24054;50.128;19.730;2023-02-04T01:40:49;21.00;46.10
38263;DHT22;24054;50.128;19.730;2023-02-04T01:43:18;21.00;46.10
38263;DHT22;24054;50.128;19.730;2023-02-04T01:45:47;21.00;46.00
38263;DHT22;24054;50.128;19.730;2023-02-04T01:48:15;21.00;46.10
38263;DHT22;24054;50.128;19.730;2023-02-04T01:50:45;21.00;46.10
38263;DHT22;24054;50.128;19.730;2023-02-04T01:53:12;21.00;46.10
38263;DHT22;24054;50.128;19.730;2023-02-04T01:55:40;21.00;46.10
38263;DHT22;24054;50.128;19.730;2023-02-04T01:58:09;21.00;46.10
38263;DHT22;24054;50.128;19.730;2023-02-04T02:00:39;20.90;46.00
38263;DHT22;24054;50.128;19.730;2023-02-04T02:03:07;20.90;46.00
38263;DHT22;24054;50.128;19.730;2023-02-04T02:05:38;20.90;46.00
38263;DHT22;24054;50.128;19.730;2023-02-04T02:08:07;20.90;46.70
38263;DHT22;24054;50.128;19.730;2023-02-04T02:10:35;20.90;46.10
38263;DHT22;24054;50.128;19.730;2023-02-04T02:13:03;20.90;46.10
38263;DHT22;24054;50.128;19.730;2023-02-04T02:15:30;20.90;46.10
38263;DHT22;24054;50.128;19.730;2023-02-04T02:17:59;20.80;46.00
38263;DHT22;24054;50.128;19.730;2023-02-04T02:20:27;20.90;46.10
38263;DHT22;24054;50.128;19.730;2023-02-04T02:23:04;20.90;46.10
38263;DHT22;24054;50.128;19.730;2023-02-04T02:25:33;20.90;46.10
38263;DHT22;24054;50.128;19.730;2023-02-04T02:28:01;20.80;46.10
38263;DHT22;24054;50.128;19.730;2023-02-04T02:30:28;20.90;46.10
38263;DHT22;24054;50.128;19.730;2023-02-04T02:32:56;20.80;46.10
38263;DHT22;24054;50.128;19.730;2023-02-04T02:35:23;20.80;46.10
38263;DHT22;24054;50.128;19.730;2023-02-04T02:37:51;20.80;46.10
38263;DHT22;24054;50.128;19.730;2023-02-04T02:40:18;20.80;46.10
38263;DHT22;24054;50.128;19.730;2023-02-04T02:42:48;20.80;46.10
38263;DHT22;24054;50.128;19.730;2023-02-04T02:45:21;20.80;46.10
38263;DHT22;24054;50.128;19.730;2023-02-04T02:47:49;20.80;46.10
38263;DHT22;24054;50.128;19.730;2023-02-04T02:50:19;20.80;46.10
38263;DHT22;24054;50.128;19.730;2023-02-04T02:52:47;20.80;46.10
38263;DHT22;24054;50.128;19.730;2023-02-04T02:55:16;20.70;46.10
38263;DHT22;24054;50.128;19.730;2023-02-04T02:57:44;20.70;46.10
38263;DHT22;24054;50.128;19.730;2023-02-04T03:00:19;20.70;46.10
38263;DHT22;24054;50.128;19.730;2023-02-04T03:02:52;20.70;46.00
38263;DHT22;24054;50.128;19.730;2023-02-04T03:05:20;20.70;46.10
38263;DHT22;24054;50.128;19.730;2023-02-04T03:07:47;20.70;46.10
38263;DHT22;24054;50.128;19.730;2023-02-04T03:10:15;20.70;46.00
38263;DHT22;24054;50.128;19.730;2023-02-04T03:12:42;20.70;46.00
38263;DHT22;24054;50.128;19.730;2023-02-04T03:15:09;20.70;46.10
38263;DHT22;24054;50.128;19.730;2023-02-04T03:17:38;20.60;46.00
38263;DHT22;24054;50.128;19.730;2023-02-04T03:20:06;20.70;46.10
38263;DHT22;24054;50.128;19.730;2023-02-04T03:22:33;20.60;46.00
38263;DHT22;24054;50.128;19.730;2023-02-04T03:25:00;20.70;46.10
38263;DHT22;24054;50.128;19.730;2023-02-04T03:27:28;20.60;46.00
38263;DHT22;24054;50.128;19.730;2023-02-04T03:29:55;20.60;46.00
38263;DHT22;24054;50.128;19.730;2023-02-04T03:32:22;20.70;46.10
38263;DHT22;24054;50.128;19.730;2023-02-04T03:34:50;20.60;46.00
38263;DHT22;24054;50.128;19.730;2023-02-04T03:37:17;20.70;46.00
38263;DHT22;24054;50.128;19.730;2023-02-04T03:39:44;20.60;46.00
38263;DHT22;24054;50.128;19.730;2023-02-04T03:42:11;20.60;45.90
38263;DHT22;24054;50.128;19.730;2023-02-04T03:44:38;20.60;46.00
38263;DHT22;24054;50.128;19.730;2023-02-04T03:47:05;20.60;46.00
38263;DHT22;24054;50.128;19.730;2023-02-04T03:49:32;20.60;46.00
38263;DHT22;24054;50.128;19.730;2023-02-04T03:52:02;20.60;46.00
38263;DHT22;24054;50.128;19.730;2023-02-04T03:54:29;20.60;46.00
38263;DHT22;24054;50.128;19.730;2023-02-04T03:56:56;20.50;45.90
38263;DHT22;24054;50.128;19.730;2023-02-04T03:59:23;20.50;46.00
38263;DHT22;24054;50.128;19.730;2023-02-04T04:01:50;20.50;45.90
38263;DHT22;24054;50.128;19.730;2023-02-04T04:04:18;20.50;45.90
38263;DHT22;24054;50.128;19.730;2023-02-04T04:06:45;20.50;45.90
38263;DHT22;24054;50.128;19.730;2023-02-04T04:09:13;20.50;45.90
38263;DHT22;24054;50.128;19.730;2023-02-04T04:11:40;20.50;46.00
38263;DHT22;24054;50.128;19.730;2023-02-04T04:14:07;20.50;46.00
38263;DHT22;24054;50.128;19.730;2023-02-04T04:16:34;20.50;46.00
38263;DHT22;24054;50.128;19.730;2023-02-04T04:19:01;20.50;46.10
38263;DHT22;24054;50.128;19.730;2023-02-04T04:21:28;20.50;46.10
38263;DHT22;24054;50.128;19.730;2023-02-04T04:23:55;20.40;46.00
38263;DHT22;24054;50.128;19.730;2023-02-04T04:26:23;20.50;46.10
38263;DHT22;24054;50.128;19.730;2023-02-04T04:28:50;20.50;46.10
38263;DHT22;24054;50.128;19.730;2023-02-04T04:31:17;20.50;46.20
38263;DHT22;24054;50.128;19.730;2023-02-04T04:33:44;20.40;46.10
38263;DHT22;24054;50.128;19.730;2023-02-04T04:36:11;20.40;46.20
38263;DHT22;24054;50.128;19.730;2023-02-04T04:38:38;20.40;46.30
38263;DHT22;24054;50.128;19.730;2023-02-04T04:41:05;20.50;46.30
38263;DHT22;24054;50.128;19.730;2023-02-04T04:43:33;20.40;46.30
38263;DHT22;24054;50.128;19.730;2023-02-04T04:46:00;20.40;46.30
38263;DHT22;24054;50.128;19.730;2023-02-04T04:48:27;20.40;46.30
38263;DHT22;24054;50.128;19.730;2023-02-04T04:50:54;20.40;46.30
38263;DHT22;24054;50.128;19.730;2023-02-04T04:53:22;20.40;46.30
38263;DHT22;24054;50.128;19.730;2023-02-04T04:55:49;20.40;46.30
38263;DHT22;24054;50.128;19.730;2023-02-04T04:58:16;20.40;46.30
38263;DHT22;24054;50.128;19.730;2023-02-04T05:00:45;20.40;46.00
38263;DHT22;24054;50.128;19.730;2023-02-04T05:03:12;20.40;46.00
38263;DHT22;24054;50.128;19.730;2023-02-04T05:05:39;20.40;45.90
38263;DHT22;24054;50.128;19.730;2023-02-04T05:08:06;20.40;45.60
38263;DHT22;24054;50.128;19.730;2023-02-04T05:10:35;20.40;45.40
38263;DHT22;24054;50.128;19.730;2023-02-04T05:13:02;20.40;45.60
38263;DHT22;24054;50.128;19.730;2023-02-04T05:15:29;20.40;46.20
38263;DHT22;24054;50.128;19.730;2023-02-04T05:17:57;20.30;45.70
38263;DHT22;24054;50.128;19.730;2023-02-04T05:20:24;20.30;46.40
38263;DHT22;24054;50.128;19.730;2023-02-04T05:22:51;20.30;45.80
38263;DHT22;24054;50.128;19.730;2023-02-04T05:25:20;20.30;45.80
38263;DHT22;24054;50.128;19.730;2023-02-04T05:27:48;20.30;45.90
38263;DHT22;24054;50.128;19.730;2023-02-04T05:30:15;20.30;46.40
38263;DHT22;24054;50.128;19.730;2023-02-04T05:32:42;20.30;45.80
38263;DHT22;24054;50.128;19.730;2023-02-04T05:35:10;20.30;45.70
38263;DHT22;24054;50.128;19.730;2023-02-04T05:37:37;20.30;45.70
38263;DHT22;24054;50.128;19.730;2023-02-04T05:40:05;20.30;45.70
38263;DHT22;24054;50.128;19.730;2023-02-04T05:42:32;20.20;45.70
38263;DHT22;24054;50.128;19.730;2023-02-04T05:44:59;20.30;45.70
38263;DHT22;24054;50.128;19.730;2023-02-04T05:47:26;20.20;45.70
38263;DHT22;24054;50.128;19.730;2023-02-04T05:49:52;20.30;45.70
38263;DHT22;24054;50.128;19.730;2023-02-04T05:52:21;20.20;45.70
38263;DHT22;24054;50.128;19.730;2023-02-04T05:54:48;20.20;45.60
38263;DHT22;24054;50.128;19.730;2023-02-04T05:57:15;20.20;45.70
38263;DHT22;24054;50.128;19.730;2023-02-04T05:59:42;20.20;45.60
38263;DHT22;24054;50.128;19.730;2023-02-04T06:02:09;20.20;45.60
38263;DHT22;24054;50.128;19.730;2023-02-04T06:04:35;20.20;45.60
38263;DHT22;24054;50.128;19.730;2023-02-04T06:07:02;20.20;45.60
38263;DHT22;24054;50.128;19.730;2023-02-04T06:09:31;20.20;45.50
38263;DHT22;24054;50.128;19.730;2023-02-04T06:11:58;20.20;45.50
38263;DHT22;24054;50.128;19.730;2023-02-04T06:14:25;20.20;45.70
38263;DHT22;24054;50.128;19.730;2023-02-04T06:16:52;20.20;45.80
38263;DHT22;24054;50.128;19.730;2023-02-04T06:19:19;20.20;46.00
38263;DHT22;24054;50.128;19.730;2023-02-04T06:21:46;20.20;46.20
38263;DHT22;24054;50.128;19.730;2023-02-04T06:24:13;20.20;46.30
38263;DHT22;24054;50.128;19.730;2023-02-04T06:26:42;20.30;46.30
38263;DHT22;24054;50.128;19.730;2023-02-04T06:29:09;20.40;46.40
38263;DHT22;24054;50.128;19.730;2023-02-04T06:31:36;20.40;46.40
38263;DHT22;24054;50.128;19.730;2023-02-04T06:34:03;20.40;46.40
38263;DHT22;24054;50.128;19.730;2023-02-04T06:36:31;20.50;46.30
38263;DHT22;24054;50.128;19.730;2023-02-04T06:38:58;20.60;46.40
38263;DHT22;24054;50.128;19.730;2023-02-04T06:41:25;20.70;46.30
38263;DHT22;24054;50.128;19.730;2023-02-04T06:43:53;20.80;46.30
38263;DHT22;24054;50.128;19.730;2023-02-04T06:46:20;20.80;46.20
38263;DHT22;24054;50.128;19.730;2023-02-04T06:48:47;20.80;46.10
38263;DHT22;24054;50.128;19.730;2023-02-04T06:51:14;21.00;46.10
38263;DHT22;24054;50.128;19.730;2023-02-04T06:53:41;21.00;46.00
38263;DHT22;24054;50.128;19.730;2023-02-04T06:56:11;21.10;46.00
38263;DHT22;24054;50.128;19.730;2023-02-04T06:58:38;21.10;45.80
38263;DHT22;24054;50.128;19.730;2023-02-04T07:01:08;21.20;45.80
38263;DHT22;24054;50.128;19.730;2023-02-04T07:03:35;21.20;45.70
38263;DHT22;24054;50.128;19.730;2023-02-04T07:06:02;21.30;45.70
38263;DHT22;24054;50.128;19.730;2023-02-04T07:08:29;21.30;45.60
38263;DHT22;24054;50.128;19.730;2023-02-04T07:10:56;21.40;45.50
38263;DHT22;24054;50.128;19.730;2023-02-04T07:13:23;21.40;45.40
38263;DHT22;24054;50.128;19.730;2023-02-04T07:15:50;21.50;45.40
38263;DHT22;24054;50.128;19.730;2023-02-04T07:18:19;21.50;45.40
38263;DHT22;24054;50.128;19.730;2023-02-04T07:20:46;21.60;45.30
38263;DHT22;24054;50.128;19.730;2023-02-04T07:23:13;21.60;45.20
38263;DHT22;24054;50.128;19.730;2023-02-04T07:25:40;21.60;45.10
38263;DHT22;24054;50.128;19.730;2023-02-04T07:28:08;21.60;45.00
38263;DHT22;24054;50.128;19.730;2023-02-04T07:30:35;21.70;45.00
38263;DHT22;24054;50.128;19.730;2023-02-04T07:33:02;21.70;44.90
38263;DHT22;24054;50.128;19.730;2023-02-04T07:35:31;21.70;44.80
38263;DHT22;24054;50.128;19.730;2023-02-04T07:37:58;21.80;44.80
38263;DHT22;24054;50.128;19.730;2023-02-04T07:40:25;21.80;44.70
38263;DHT22;24054;50.128;19.730;2023-02-04T07:42:52;21.80;44.60
38263;DHT22;24054;50.128;19.730;2023-02-04T07:45:19;21.90;44.60
38263;DHT22;24054;50.128;19.730;2023-02-04T07:47:46;21.90;44.60
38263;DHT22;24054;50.128;19.730;2023-02-04T07:50:13;21.90;44.50
38263;DHT22;24054;50.128;19.730;2023-02-04T07:52:42;21.90;44.50
38263;DHT22;24054;50.128;19.730;2023-02-04T07:55:09;21.90;44.30
38263;DHT22;24054;50.128;19.730;2023-02-04T07:57:38;22.00;44.30
38263;DHT22;24054;50.128;19.730;2023-02-04T08:00:06;22.00;44.20
38263;DHT22;24054;50.128;19.730;2023-02-04T08:02:33;22.00;44.10
38263;DHT22;24054;50.128;19.730;2023-02-04T08:05:00;22.00;44.10
38263;DHT22;24054;50.128;19.730;2023-02-04T08:07:27;22.00;44.00
38263;DHT22;24054;50.128;19.730;2023-02-04T08:09:56;22.00;43.80
38263;DHT22;24054;50.128;19.730;2023-02-04T08:12:23;22.00;44.00
38263;DHT22;24054;50.128;19.730;2023-02-04T08:14:52;22.00;43.90
38263;DHT22;24054;50.128;19.730;2023-02-04T08:17:19;22.00;44.00
38263;DHT22;24054;50.128;19.730;2023-02-04T08:19:46;22.00;44.10
38263;DHT22;24054;50.128;19.730;2023-02-04T08:22:13;22.00;44.20
38263;DHT22;24054;50.128;19.730;2023-02-04T08:24:40;21.90;44.10
38263;DHT22;24054;50.128;19.730;2023-02-04T08:27:09;21.90;44.10
38263;DHT22;24054;50.128;19.730;2023-02-04T08:29:36;21.90;44.10
38263;DHT22;24054;50.128;19.730;2023-02-04T08:32:03;21.90;44.20
38263;DHT22;24054;50.128;19.730;2023-02-04T08:34:30;21.90;44.30
38263;DHT22;24054;50.128;19.730;2023-02-04T08:36:58;21.90;44.40
38263;DHT22;24054;50.128;19.730;2023-02-04T08:39:25;21.90;44.50
38263;DHT22;24054;50.128;19.730;2023-02-04T08:41:52;21.90;44.50
38263;DHT22;24054;50.128;19.730;2023-02-04T08:44:23;21.90;44.50
38263;DHT22;24054;50.128;19.730;2023-02-04T08:46:50;21.90;44.60
38263;DHT22;24054;50.128;19.730;2023-02-04T08:49:17;21.90;44.70
38263;DHT22;24054;50.128;19.730;2023-02-04T08:51:44;21.90;44.70
38263;DHT22;24054;50.128;19.730;2023-02-04T08:54:11;21.90;44.80
38263;DHT22;24054;50.128;19.730;2023-02-04T08:56:38;21.90;44.70
38263;DHT22;24054;50.128;19.730;2023-02-04T08:59:06;21.90;44.90
38263;DHT22;24054;50.128;19.730;2023-02-04T09:01:34;22.00;44.90
38263;DHT22;24054;50.128;19.730;2023-02-04T09:04:01;22.00;44.90
38263;DHT22;24054;50.128;19.730;2023-02-04T09:06:28;22.10;45.00
38263;DHT22;24054;50.128;19.730;2023-02-04T09:08:56;22.10;45.00
38263;DHT22;24054;50.128;19.730;2023-02-04T09:11:23;22.10;45.00
38263;DHT22;24054;50.128;19.730;2023-02-04T09:13:50;22.20;45.10
38263;DHT22;24054;50.128;19.730;2023-02-04T09:16:17;22.20;45.20
38263;DHT22;24054;50.128;19.730;2023-02-04T09:18:45;22.20;45.70
38263;DHT22;24054;50.128;19.730;2023-02-04T09:21:12;22.30;46.40
38263;DHT22;24054;50.128;19.730;2023-02-04T09:23:39;22.30;46.10
38263;DHT22;24054;50.128;19.730;2023-02-04T09:26:06;22.40;46.00
38263;DHT22;24054;50.128;19.730;2023-02-04T09:28:35;22.40;46.00
38263;DHT22;24054;50.128;19.730;2023-02-04T09:31:02;22.50;45.90
38263;DHT22;24054;50.128;19.730;2023-02-04T09:33:34;22.40;45.70
38263;DHT22;24054;50.128;19.730;2023-02-04T09:36:04;22.50;45.80
38263;DHT22;24054;50.128;19.730;2023-02-04T09:38:31;22.50;45.60
38263;DHT22;24054;50.128;19.730;2023-02-04T09:41:01;22.50;45.60
38263;DHT22;24054;50.128;19.730;2023-02-04T09:43:32;22.50;45.60
38263;DHT22;24054;50.128;19.730;2023-02-04T09:46:01;22.50;45.60
38263;DHT22;24054;50.128;19.730;2023-02-04T09:48:28;22.40;45.50
38263;DHT22;24054;50.128;19.730;2023-02-04T09:51:04;22.40;45.60
38263;DHT22;24054;50.128;19.730;2023-02-04T09:53:32;22.40;45.60
38263;DHT22;24054;50.128;19.730;2023-02-04T09:56:00;22.40;45.70
38263;DHT22;24054;50.128;19.730;2023-02-04T09:58:30;22.30;45.70
38263;DHT22;24054;50.128;19.730;2023-02-04T10:01:05;22.40;45.90
38263;DHT22;24054;50.128;19.730;2023-02-04T10:03:35;22.30;46.00
38263;DHT22;24054;50.128;19.730;2023-02-04T10:06:04;22.30;46.30
38263;DHT22;24054;50.128;19.730;2023-02-04T10:08:32;22.40;46.40
38263;DHT22;24054;50.128;19.730;2023-02-04T10:10:59;22.40;47.00
38263;DHT22;24054;50.128;19.730;2023-02-04T10:13:31;22.50;46.80
38263;DHT22;24054;50.128;19.730;2023-02-04T10:15:59;22.50;46.90
38263;DHT22;24054;50.128;19.730;2023-02-04T10:18:29;22.50;46.90
38263;DHT22;24054;50.128;19.730;2023-02-04T10:20:59;22.50;47.10
38263;DHT22;24054;50.128;19.730;2023-02-04T10:23:28;22.50;47.20
38263;DHT22;24054;50.128;19.730;2023-02-04T10:25:56;22.50;47.30
38263;DHT22;24054;50.128;19.730;2023-02-04T10:28:32;22.50;47.40
38263;DHT22;24054;50.128;19.730;2023-02-04T10:31:00;22.60;47.60
38263;DHT22;24054;50.128;19.730;2023-02-04T10:33:27;22.70;47.90
38263;DHT22;24054;50.128;19.730;2023-02-04T10:35:55;22.70;47.80
38263;DHT22;24054;50.128;19.730;2023-02-04T10:38:23;22.80;47.70
38263;DHT22;24054;50.128;19.730;2023-02-04T10:41:00;22.80;48.10
38263;DHT22;24054;50.128;19.730;2023-02-04T10:43:28;22.90;47.40
38263;DHT22;24054;50.128;19.730;2023-02-04T10:45:56;23.00;47.30
38263;DHT22;24054;50.128;19.730;2023-02-04T10:48:24;23.10;47.20
38263;DHT22;24054;50.128;19.730;2023-02-04T10:50:51;23.10;47.00
38263;DHT22;24054;50.128;19.730;2023-02-04T10:53:20;23.20;46.90
38263;DHT22;24054;50.128;19.730;2023-02-04T10:56:14;23.30;46.60
38263;DHT22;24054;50.128;19.730;2023-02-04T10:58:42;23.30;46.50
38263;DHT22;24054;50.128;19.730;2023-02-04T11:01:10;23.40;46.60
38263;DHT22;24054;50.128;19.730;2023-02-04T11:03:39;23.50;46.70
38263;DHT22;24054;50.128;19.730;2023-02-04T11:06:11;23.60;46.70
38263;DHT22;24054;50.128;19.730;2023-02-04T11:08:39;23.70;46.70
38263;DHT22;24054;50.128;19.730;2023-02-04T11:11:13;23.80;46.80
38263;DHT22;24054;50.128;19.730;2023-02-04T11:13:42;23.90;46.90
38263;DHT22;24054;50.128;19.730;2023-02-04T11:16:12;23.90;46.80
38263;DHT22;24054;50.128;19.730;2023-02-04T11:18:51;24.00;46.90
38263;DHT22;24054;50.128;19.730;2023-02-04T11:21:24;24.10;46.90
38263;DHT22;24054;50.128;19.730;2023-02-04T11:24:04;24.10;45.80
38263;DHT22;24054;50.128;19.730;2023-02-04T11:26:34;24.00;44.50
38263;DHT22;24054;50.128;19.730;2023-02-04T11:29:28;23.90;44.20
38263;DHT22;24054;50.128;19.730;2023-02-04T11:32:01;23.90;44.40
38263;DHT22;24054;50.128;19.730;2023-02-04T11:34:45;23.80;44.50
38263;DHT22;24054;50.128;19.730;2023-02-04T11:37:32;23.90;44.90
38263;DHT22;24054;50.128;19.730;2023-02-04T11:40:00;23.90;45.20
38263;DHT22;24054;50.128;19.730;2023-02-04T11:42:41;23.90;45.30
38263;DHT22;24054;50.128;19.730;2023-02-04T11:45:13;24.00;45.60
38263;DHT22;24054;50.128;19.730;2023-02-04T11:47:42;24.00;43.60
38263;DHT22;24054;50.128;19.730;2023-02-04T11:50:16;24.10;39.70
38263;DHT22;24054;50.128;19.730;2023-02-04T11:52:45;24.10;41.10
38263;DHT22;24054;50.128;19.730;2023-02-04T11:55:12;24.00;38.00
38263;DHT22;24054;50.128;19.730;2023-02-04T11:57:42;24.00;39.80
38263;DHT22;24054;50.128;19.730;2023-02-04T12:00:14;24.00;40.70
38263;DHT22;24054;50.128;19.730;2023-02-04T12:02:45;24.00;40.90
38263;DHT22;24054;50.128;19.730;2023-02-04T12:05:14;24.00;41.50
38263;DHT22;24054;50.128;19.730;2023-02-04T12:07:42;24.00;42.00
38263;DHT22;24054;50.128;19.730;2023-02-04T12:10:12;24.10;42.50
38263;DHT22;24054;50.128;19.730;2023-02-04T12:12:47;24.20;43.00
38263;DHT22;24054;50.128;19.730;2023-02-04T12:15:16;24.20;43.00
38263;DHT22;24054;50.128;19.730;2023-02-04T12:17:59;24.20;43.00
38263;DHT22;24054;50.128;19.730;2023-02-04T12:20:26;24.20;43.00
38263;DHT22;24054;50.128;19.730;2023-02-04T12:22:53;24.20;43.10
38263;DHT22;24054;50.128;19.730;2023-02-04T12:25:20;24.20;42.90
38263;DHT22;24054;50.128;19.730;2023-02-04T12:27:49;24.10;43.00
38263;DHT22;24054;50.128;19.730;2023-02-04T12:30:19;24.10;42.90
38263;DHT22;24054;50.128;19.730;2023-02-04T12:32:46;24.00;43.10
38263;DHT22;24054;50.128;19.730;2023-02-04T12:35:14;23.90;43.70
38263;DHT22;24054;50.128;19.730;2023-02-04T12:37:41;23.80;43.20
38263;DHT22;24054;50.128;19.730;2023-02-04T12:40:09;23.80;43.40
38263;DHT22;24054;50.128;19.730;2023-02-04T12:42:39;23.70;43.50
38263;DHT22;24054;50.128;19.730;2023-02-04T12:45:09;23.60;43.80
38263;DHT22;24054;50.128;19.730;2023-02-04T12:47:38;23.50;43.80
38263;DHT22;24054;50.128;19.730;2023-02-04T12:50:06;23.50;43.90
38263;DHT22;24054;50.128;19.730;2023-02-04T12:52:36;23.40;44.00
38263;DHT22;24054;50.128;19.730;2023-02-04T12:55:05;23.30;44.00
38263;DHT22;24054;50.128;19.730;2023-02-04T12:57:32;23.30;44.00
38263;DHT22;24054;50.128;19.730;2023-02-04T13:00:00;23.20;44.00
38263;DHT22;24054;50.128;19.730;2023-02-04T13:02:28;23.20;44.10
38263;DHT22;24054;50.128;19.730;2023-02-04T13:04:56;23.10;44.20
38263;DHT22;24054;50.128;19.730;2023-02-04T13:07:23;23.10;44.30
38263;DHT22;24054;50.128;19.730;2023-02-04T13:09:51;23.00;44.30
38263;DHT22;24054;50.128;19.730;2023-02-04T13:12:18;22.90;44.30
38263;DHT22;24054;50.128;19.730;2023-02-04T13:14:46;22.90;44.40
38263;DHT22;24054;50.128;19.730;2023-02-04T13:17:13;22.90;44.60
38263;DHT22;24054;50.128;19.730;2023-02-04T13:19:41;22.80;44.60
38263;DHT22;24054;50.128;19.730;2023-02-04T13:22:08;22.90;44.70
38263;DHT22;24054;50.128;19.730;2023-02-04T13:24:35;22.80;44.70
38263;DHT22;24054;50.128;19.730;2023-02-04T13:27:02;22.90;44.70
38263;DHT22;24054;50.128;19.730;2023-02-04T13:29:29;22.90;44.60
38263;DHT22;24054;50.128;19.730;2023-02-04T13:31:56;22.90;44.70
38263;DHT22;24054;50.128;19.730;2023-02-04T13:34:23;22.80;43.90
38263;DHT22;24054;50.128;19.730;2023-02-04T13:36:52;22.80;43.00
38263;DHT22;24054;50.128;19.730;2023-02-04T13:39:19;22.80;43.30
38263;DHT22;24054;50.128;19.730;2023-02-04T13:41:46;22.80;43.60
38263;DHT22;24054;50.128;19.730;2023-02-04T13:44:13;22.80;43.90
38263;DHT22;24054;50.128;19.730;2023-02-04T13:46:40;22.70;44.00
38263;DHT22;24054;50.128;19.730;2023-02-04T13:49:07;22.70;44.20
38263;DHT22;24054;50.128;19.730;2023-02-04T13:51:35;22.70;44.30
38263;DHT22;24054;50.128;19.730;2023-02-04T13:54:03;22.70;44.50
38263;DHT22;24054;50.128;19.730;2023-02-04T13:56:30;22.70;44.50
38263;DHT22;24054;50.128;19.730;2023-02-04T13:58:58;22.70;44.50
38263;DHT22;24054;50.128;19.730;2023-02-04T14:01:25;22.70;44.50
38263;DHT22;24054;50.128;19.730;2023-02-04T14:03:52;22.70;44.50
38263;DHT22;24054;50.128;19.730;2023-02-04T14:06:19;22.70;44.40
38263;DHT22;24054;50.128;19.730;2023-02-04T14:08:48;22.70;44.40
38263;DHT22;24054;50.128;19.730;2023-02-04T14:11:16;22.60;44.40
38263;DHT22;24054;50.128;19.730;2023-02-04T14:13:43;22.70;44.40
38263;DHT22;24054;50.128;19.730;2023-02-04T14:16:10;22.70;44.40
38263;DHT22;24054;50.128;19.730;2023-02-04T14:18:37;22.60;44.40
38263;DHT22;24054;50.128;19.730;2023-02-04T14:21:04;22.60;44.30
38263;DHT22;24054;50.128;19.730;2023-02-04T14:23:34;22.60;44.30
38263;DHT22;24054;50.128;19.730;2023-02-04T14:26:01;22.60;44.30
38263;DHT22;24054;50.128;19.730;2023-02-04T14:28:30;22.60;44.30
38263;DHT22;24054;50.128;19.730;2023-02-04T14:30:57;22.60;44.40
38263;DHT22;24054;50.128;19.730;2023-02-04T14:33:24;22.60;44.40
38263;DHT22;24054;50.128;19.730;2023-02-04T14:35:51;22.50;44.50
38263;DHT22;24054;50.128;19.730;2023-02-04T14:38:18;22.50;44.50
38263;DHT22;24054;50.128;19.730;2023-02-04T14:40:45;22.50;44.50
38263;DHT22;24054;50.128;19.730;2023-02-04T14:43:12;22.50;44.50
38263;DHT22;24054;50.128;19.730;2023-02-04T14:45:41;22.50;44.70
38263;DHT22;24054;50.128;19.730;2023-02-04T14:48:08;22.40;44.80
38263;DHT22;24054;50.128;19.730;2023-02-04T14:50:35;22.40;45.10
38263;DHT22;24054;50.128;19.730;2023-02-04T14:53:02;22.40;45.30
38263;DHT22;24054;50.128;19.730;2023-02-04T14:55:29;22.40;45.30
38263;DHT22;24054;50.128;19.730;2023-02-04T14:57:56;22.40;45.10
38263;DHT22;24054;50.128;19.730;2023-02-04T15:00:24;22.40;44.10
38263;DHT22;24054;50.128;19.730;2023-02-04T15:02:52;22.30;44.20
38263;DHT22;24054;50.128;19.730;2023-02-04T15:05:19;22.30;44.40
38263;DHT22;24054;50.128;19.730;2023-02-04T15:07:46;22.30;44.50
38263;DHT22;24054;50.128;19.730;2023-02-04T15:10:13;22.30;44.50
38263;DHT22;24054;50.128;19.730;2023-02-04T15:12:40;22.20;44.50
38263;DHT22;24054;50.128;19.730;2023-02-04T15:15:08;22.20;44.60
38263;DHT22;24054;50.128;19.730;2023-02-04T15:17:35;22.20;44.70
38263;DHT22;24054;50.128;19.730;2023-02-04T15:20:05;22.20;44.70